Metar
Geneve

LSGG 042250Z AUTO 03010KT CAVOK 17/09 Q1017 NOSIG

Payerne

LSMP 042250Z AUTO 01003KT 9999NDV NCD 12/11 Q1019 RMK

Eplatures

LSGC 051550Z 13006KT 080V170 CAVOK 15/M05 Q1019

Berne

LSZB 042250Z AUTO VRB01KT 9999 FEW012 10/10 Q1019

Granges

LSZG 042250Z AUTO 03003KT CAVOK 11/10 Q1019

Sion

LSGS 042250Z AUTO 10003KT CAVOK 14/09 Q1018

Annecy

LFLP 042300Z AUTO 02008KT CAVOK 16/11 Q1017

Taf
Geneve

TAF LSGG 042025Z 0421/0603 06012KT CAVOK TX25/0515Z TN12/0505Z PROB40 TEMPO 0503/0507 9999 SCT030 TEMPO 0507/0514 04015G25KT BECMG 0523/0601 VRB03KT

Eplatures

TAF AMD TAF AMD LSGC 270646Z 2706/2718 VRB03KT 9000 OVC015 BECMG 2712/2715 9999 SCT020

Berne

TAF AMD TAF AMD LSZB 222054Z 2220/2224 CNL

Granges

TAF AMD LSZG 222054Z 2220/2224 CNL

Sion

TAF AMD LSGS 242023Z 2415/2424 CNL

Annecy

TAF AMD LFLP 041902Z 0419/0515 CNL